sensor_id;sensor_type;location;lat;lon;timestamp;temperature;humidity
15111;DHT22;7656;51.954;7.998;2022-12-18T00:03:21;-8.20;99.90
15111;DHT22;7656;51.954;7.998;2022-12-18T00:07:42;-7.90;99.90
15111;DHT22;7656;51.954;7.998;2022-12-18T00:12:03;-7.80;99.90
15111;DHT22;7656;51.954;7.998;2022-12-18T00:16:26;-7.80;99.90
15111;DHT22;7656;51.954;7.998;2022-12-18T00:20:48;-7.90;99.90
15111;DHT22;7656;51.954;7.998;2022-12-18T00:25:09;-7.80;99.90
15111;DHT22;7656;51.954;7.998;2022-12-18T00:29:30;-8.00;99.90
15111;DHT22;7656;51.954;7.998;2022-12-18T00:33:51;-7.90;99.90
15111;DHT22;7656;51.954;7.998;2022-12-18T00:38:15;-7.80;99.90
15111;DHT22;7656;51.954;7.998;2022-12-18T00:42:38;-7.70;99.90
15111;DHT22;7656;51.954;7.998;2022-12-18T00:47:17;-7.60;99.90
15111;DHT22;7656;51.954;7.998;2022-12-18T00:51:38;-7.60;99.90
15111;DHT22;7656;51.954;7.998;2022-12-18T00:55:59;-7.70;99.90
15111;DHT22;7656;51.954;7.998;2022-12-18T01:00:21;-7.90;99.90
15111;DHT22;7656;51.954;7.998;2022-12-18T01:04:42;-8.00;99.90
15111;DHT22;7656;51.954;7.998;2022-12-18T01:09:03;-7.90;99.90
15111;DHT22;7656;51.954;7.998;2022-12-18T01:13:24;-7.80;99.90
15111;DHT22;7656;51.954;7.998;2022-12-18T01:17:45;-8.10;99.90
15111;DHT22;7656;51.954;7.998;2022-12-18T01:22:07;-8.00;99.90
15111;DHT22;7656;51.954;7.998;2022-12-18T01:26:28;-8.20;99.90
15111;DHT22;7656;51.954;7.998;2022-12-18T01:30:50;-8.10;99.90
15111;DHT22;7656;51.954;7.998;2022-12-18T01:35:11;-7.90;99.90
15111;DHT22;7656;51.954;7.998;2022-12-18T01:39:32;-7.90;99.90
15111;DHT22;7656;51.954;7.998;2022-12-18T01:43:56;-7.90;99.90
15111;DHT22;7656;51.954;7.998;2022-12-18T01:48:18;-8.00;99.90
15111;DHT22;7656;51.954;7.998;2022-12-18T01:52:41;-7.90;99.90
15111;DHT22;7656;51.954;7.998;2022-12-18T01:57:04;-8.10;99.90
15111;DHT22;7656;51.954;7.998;2022-12-18T02:01:25;-8.00;99.90
15111;DHT22;7656;51.954;7.998;2022-12-18T02:06:09;-8.00;99.90
15111;DHT22;7656;51.954;7.998;2022-12-18T02:15:36;-7.90;99.90
15111;DHT22;7656;51.954;7.998;2022-12-18T02:20:34;-7.90;99.90
15111;DHT22;7656;51.954;7.998;2022-12-18T02:24:59;-7.90;99.90
15111;DHT22;7656;51.954;7.998;2022-12-18T02:29:48;-7.90;99.90
15111;DHT22;7656;51.954;7.998;2022-12-18T02:34:13;-7.80;99.90
15111;DHT22;7656;51.954;7.998;2022-12-18T02:38:35;-8.00;99.90
15111;DHT22;7656;51.954;7.998;2022-12-18T02:43:13;-7.90;99.90
15111;DHT22;7656;51.954;7.998;2022-12-18T02:47:42;-8.20;99.90
15111;DHT22;7656;51.954;7.998;2022-12-18T02:52:10;-8.50;99.90
15111;DHT22;7656;51.954;7.998;2022-12-18T02:56:59;-8.40;99.90
15111;DHT22;7656;51.954;7.998;2022-12-18T03:01:38;-8.20;99.90
15111;DHT22;7656;51.954;7.998;2022-12-18T03:06:23;-8.10;99.90
15111;DHT22;7656;51.954;7.998;2022-12-18T03:10:54;-8.00;99.90
15111;DHT22;7656;51.954;7.998;2022-12-18T03:15:29;-8.10;99.90
15111;DHT22;7656;51.954;7.998;2022-12-18T03:20:07;-8.40;99.90
15111;DHT22;7656;51.954;7.998;2022-12-18T03:24:31;-8.40;99.90
15111;DHT22;7656;51.954;7.998;2022-12-18T03:29:00;-8.50;99.90
15111;DHT22;7656;51.954;7.998;2022-12-18T03:33:25;-8.50;99.90
15111;DHT22;7656;51.954;7.998;2022-12-18T03:37:50;-8.60;99.90
15111;DHT22;7656;51.954;7.998;2022-12-18T03:42:25;-8.60;99.90
15111;DHT22;7656;51.954;7.998;2022-12-18T03:47:09;-8.80;99.90
15111;DHT22;7656;51.954;7.998;2022-12-18T03:52:09;-8.60;99.90
15111;DHT22;7656;51.954;7.998;2022-12-18T03:56:39;-8.30;99.90
15111;DHT22;7656;51.954;7.998;2022-12-18T04:01:10;-8.20;99.90
15111;DHT22;7656;51.954;7.998;2022-12-18T04:05:35;-8.10;99.90
15111;DHT22;7656;51.954;7.998;2022-12-18T04:09:58;-8.00;99.90
15111;DHT22;7656;51.954;7.998;2022-12-18T04:14:23;-8.00;99.90
15111;DHT22;7656;51.954;7.998;2022-12-18T04:18:48;-8.00;99.90
15111;DHT22;7656;51.954;7.998;2022-12-18T04:27:38;-8.00;99.90
15111;DHT22;7656;51.954;7.998;2022-12-18T04:32:00;-8.00;99.90
15111;DHT22;7656;51.954;7.998;2022-12-18T04:36:23;-8.00;99.90
15111;DHT22;7656;51.954;7.998;2022-12-18T04:40:48;-7.90;99.90
15111;DHT22;7656;51.954;7.998;2022-12-18T04:45:16;-7.90;99.90
15111;DHT22;7656;51.954;7.998;2022-12-18T04:49:38;-8.10;99.90
15111;DHT22;7656;51.954;7.998;2022-12-18T04:53:59;-8.40;99.90
15111;DHT22;7656;51.954;7.998;2022-12-18T04:58:20;-8.70;99.90
15111;DHT22;7656;51.954;7.998;2022-12-18T05:02:41;-8.90;99.90
15111;DHT22;7656;51.954;7.998;2022-12-18T05:07:02;-9.00;99.90
15111;DHT22;7656;51.954;7.998;2022-12-18T05:11:23;-8.90;99.90
15111;DHT22;7656;51.954;7.998;2022-12-18T05:15:51;-9.00;99.90
15111;DHT22;7656;51.954;7.998;2022-12-18T05:20:13;-9.00;99.90
15111;DHT22;7656;51.954;7.998;2022-12-18T05:24:34;-9.00;99.90
15111;DHT22;7656;51.954;7.998;2022-12-18T05:28:55;-9.10;99.90
15111;DHT22;7656;51.954;7.998;2022-12-18T05:33:17;-9.00;99.90
15111;DHT22;7656;51.954;7.998;2022-12-18T05:37:39;-8.80;99.90
15111;DHT22;7656;51.954;7.998;2022-12-18T05:42:01;-8.70;99.90
15111;DHT22;7656;51.954;7.998;2022-12-18T05:46:22;-8.60;99.90
15111;DHT22;7656;51.954;7.998;2022-12-18T05:50:45;-8.40;99.90
15111;DHT22;7656;51.954;7.998;2022-12-18T05:55:07;-8.30;99.90
15111;DHT22;7656;51.954;7.998;2022-12-18T05:59:28;-8.60;99.90
15111;DHT22;7656;51.954;7.998;2022-12-18T06:03:50;-8.70;99.90
15111;DHT22;7656;51.954;7.998;2022-12-18T06:08:22;-8.60;99.90
15111;DHT22;7656;51.954;7.998;2022-12-18T06:12:43;-8.30;99.90
15111;DHT22;7656;51.954;7.998;2022-12-18T06:17:07;-7.90;99.90
15111;DHT22;7656;51.954;7.998;2022-12-18T06:21:44;-7.70;99.90
15111;DHT22;7656;51.954;7.998;2022-12-18T06:26:10;-7.60;99.90
15111;DHT22;7656;51.954;7.998;2022-12-18T06:30:32;-7.50;99.90
15111;DHT22;7656;51.954;7.998;2022-12-18T06:34:53;-7.50;99.90
15111;DHT22;7656;51.954;7.998;2022-12-18T06:39:16;-7.60;99.90
15111;DHT22;7656;51.954;7.998;2022-12-18T06:43:37;-7.60;99.90
15111;DHT22;7656;51.954;7.998;2022-12-18T06:47:58;-7.50;99.90
15111;DHT22;7656;51.954;7.998;2022-12-18T06:52:19;-7.80;99.90
15111;DHT22;7656;51.954;7.998;2022-12-18T06:56:40;-8.00;99.90
15111;DHT22;7656;51.954;7.998;2022-12-18T07:01:04;-7.80;99.90
15111;DHT22;7656;51.954;7.998;2022-12-18T07:05:25;-7.60;99.90
15111;DHT22;7656;51.954;7.998;2022-12-18T07:09:46;-7.40;99.90
15111;DHT22;7656;51.954;7.998;2022-12-18T07:14:08;-7.40;99.90
15111;DHT22;7656;51.954;7.998;2022-12-18T07:18:29;-7.40;99.90
15111;DHT22;7656;51.954;7.998;2022-12-18T07:22:50;-7.40;99.90
15111;DHT22;7656;51.954;7.998;2022-12-18T07:27:11;-7.30;99.90
15111;DHT22;7656;51.954;7.998;2022-12-18T07:31:32;-7.30;99.90
15111;DHT22;7656;51.954;7.998;2022-12-18T07:35:53;-7.20;99.90
15111;DHT22;7656;51.954;7.998;2022-12-18T07:40:14;-7.10;99.90
15111;DHT22;7656;51.954;7.998;2022-12-18T07:44:35;-7.30;99.90
15111;DHT22;7656;51.954;7.998;2022-12-18T07:48:57;-7.80;99.90
15111;DHT22;7656;51.954;7.998;2022-12-18T07:53:18;-7.80;99.90
15111;DHT22;7656;51.954;7.998;2022-12-18T07:57:39;-7.80;99.90
15111;DHT22;7656;51.954;7.998;2022-12-18T08:02:00;-8.00;99.90
15111;DHT22;7656;51.954;7.998;2022-12-18T08:06:22;-8.00;99.90
15111;DHT22;7656;51.954;7.998;2022-12-18T08:10:43;-7.80;99.90
15111;DHT22;7656;51.954;7.998;2022-12-18T08:15:04;-7.20;99.90
15111;DHT22;7656;51.954;7.998;2022-12-18T08:19:26;-6.30;99.90
15111;DHT22;7656;51.954;7.998;2022-12-18T08:23:48;-4.70;99.90
15111;DHT22;7656;51.954;7.998;2022-12-18T08:28:10;-3.30;99.90
15111;DHT22;7656;51.954;7.998;2022-12-18T08:32:31;-2.40;99.90
15111;DHT22;7656;51.954;7.998;2022-12-18T08:36:53;-1.70;99.90
15111;DHT22;7656;51.954;7.998;2022-12-18T08:41:16;-1.10;99.90
15111;DHT22;7656;51.954;7.998;2022-12-18T08:45:39;-1.40;99.90
15111;DHT22;7656;51.954;7.998;2022-12-18T08:50:00;-0.80;99.90
15111;DHT22;7656;51.954;7.998;2022-12-18T08:54:21;-1.40;99.90
15111;DHT22;7656;51.954;7.998;2022-12-18T08:58:42;-2.00;99.90
15111;DHT22;7656;51.954;7.998;2022-12-18T09:03:04;-1.60;99.90
15111;DHT22;7656;51.954;7.998;2022-12-18T09:07:25;-1.00;99.90
15111;DHT22;7656;51.954;7.998;2022-12-18T09:11:46;-1.50;99.90
15111;DHT22;7656;51.954;7.998;2022-12-18T09:16:07;-1.60;99.90
15111;DHT22;7656;51.954;7.998;2022-12-18T09:20:28;-1.80;99.90
15111;DHT22;7656;51.954;7.998;2022-12-18T09:24:50;-2.20;99.90
15111;DHT22;7656;51.954;7.998;2022-12-18T09:29:11;-2.20;99.90
15111;DHT22;7656;51.954;7.998;2022-12-18T09:33:33;-2.50;99.90
15111;DHT22;7656;51.954;7.998;2022-12-18T09:37:55;-2.00;99.90
15111;DHT22;7656;51.954;7.998;2022-12-18T09:42:20;-1.80;99.90
15111;DHT22;7656;51.954;7.998;2022-12-18T09:47:13;-1.70;99.90
15111;DHT22;7656;51.954;7.998;2022-12-18T09:51:54;-1.50;99.90
15111;DHT22;7656;51.954;7.998;2022-12-18T09:56:19;-0.90;99.90
15111;DHT22;7656;51.954;7.998;2022-12-18T10:00:44;-1.10;99.90
15111;DHT22;7656;51.954;7.998;2022-12-18T10:05:10;-0.50;99.90
15111;DHT22;7656;51.954;7.998;2022-12-18T10:28:51;0.50;99.90
15111;DHT22;7656;51.954;7.998;2022-12-18T10:33:16;-0.20;99.90
15111;DHT22;7656;51.954;7.998;2022-12-18T10:37:59;-0.80;99.90
15111;DHT22;7656;51.954;7.998;2022-12-18T10:42:22;-1.20;99.90
15111;DHT22;7656;51.954;7.998;2022-12-18T10:46:45;-1.10;99.90
15111;DHT22;7656;51.954;7.998;2022-12-18T10:51:07;-0.70;99.90
15111;DHT22;7656;51.954;7.998;2022-12-18T10:55:35;-0.50;99.90
15111;DHT22;7656;51.954;7.998;2022-12-18T11:00:18;-0.60;99.90
15111;DHT22;7656;51.954;7.998;2022-12-18T11:04:50;-0.50;99.90
15111;DHT22;7656;51.954;7.998;2022-12-18T11:09:41;-0.30;99.90
15111;DHT22;7656;51.954;7.998;2022-12-18T11:14:03;-0.40;99.90
15111;DHT22;7656;51.954;7.998;2022-12-18T11:18:29;-0.50;99.90
15111;DHT22;7656;51.954;7.998;2022-12-18T11:23:04;-0.20;99.90
15111;DHT22;7656;51.954;7.998;2022-12-18T11:27:26;0.00;99.90
15111;DHT22;7656;51.954;7.998;2022-12-18T11:31:49;-0.30;99.90
15111;DHT22;7656;51.954;7.998;2022-12-18T11:36:10;0.00;99.90
15111;DHT22;7656;51.954;7.998;2022-12-18T11:40:36;0.00;99.90
15111;DHT22;7656;51.954;7.998;2022-12-18T11:45:04;-0.20;99.90
15111;DHT22;7656;51.954;7.998;2022-12-18T11:49:34;-0.20;99.90
15111;DHT22;7656;51.954;7.998;2022-12-18T11:53:56;-0.10;99.90
15111;DHT22;7656;51.954;7.998;2022-12-18T11:58:47;0.00;99.90
15111;DHT22;7656;51.954;7.998;2022-12-18T12:03:21;-0.10;99.90
15111;DHT22;7656;51.954;7.998;2022-12-18T12:07:58;-0.40;99.90
15111;DHT22;7656;51.954;7.998;2022-12-18T12:41:32;0.30;99.90
15111;DHT22;7656;51.954;7.998;2022-12-18T12:46:16;0.60;99.90
15111;DHT22;7656;51.954;7.998;2022-12-18T12:50:39;0.60;99.90
15111;DHT22;7656;51.954;7.998;2022-12-18T12:55:02;0.10;99.90
15111;DHT22;7656;51.954;7.998;2022-12-18T13:00:06;-0.40;99.90
15111;DHT22;7656;51.954;7.998;2022-12-18T13:09:22;-0.70;99.90
15111;DHT22;7656;51.954;7.998;2022-12-18T13:13:55;-0.80;99.90
15111;DHT22;7656;51.954;7.998;2022-12-18T13:18:20;-0.80;99.90
15111;DHT22;7656;51.954;7.998;2022-12-18T13:22:44;-0.80;99.90
15111;DHT22;7656;51.954;7.998;2022-12-18T13:32:20;-0.70;99.90
15111;DHT22;7656;51.954;7.998;2022-12-18T13:36:45;-0.80;99.90
15111;DHT22;7656;51.954;7.998;2022-12-18T13:45:39;-1.00;99.90
15111;DHT22;7656;51.954;7.998;2022-12-18T13:50:11;-0.90;99.90
15111;DHT22;7656;51.954;7.998;2022-12-18T13:54:42;-1.00;99.90
15111;DHT22;7656;51.954;7.998;2022-12-18T13:59:14;-0.90;99.90
15111;DHT22;7656;51.954;7.998;2022-12-18T14:03:42;-1.00;99.90
15111;DHT22;7656;51.954;7.998;2022-12-18T14:08:08;-0.80;99.90
15111;DHT22;7656;51.954;7.998;2022-12-18T14:12:32;-0.50;99.90
15111;DHT22;7656;51.954;7.998;2022-12-18T14:17:13;-0.20;99.90
15111;DHT22;7656;51.954;7.998;2022-12-18T14:21:36;-0.20;99.90
15111;DHT22;7656;51.954;7.998;2022-12-18T14:25:58;0.10;99.90
15111;DHT22;7656;51.954;7.998;2022-12-18T14:34:49;0.20;99.90
15111;DHT22;7656;51.954;7.998;2022-12-18T14:39:17;-0.10;99.90
15111;DHT22;7656;51.954;7.998;2022-12-18T14:43:44;-0.10;99.90
15111;DHT22;7656;51.954;7.998;2022-12-18T14:48:07;-0.50;99.90
15111;DHT22;7656;51.954;7.998;2022-12-18T14:52:39;-0.30;99.90
15111;DHT22;7656;51.954;7.998;2022-12-18T14:57:20;-0.20;99.90
15111;DHT22;7656;51.954;7.998;2022-12-18T15:06:36;-0.60;99.90
15111;DHT22;7656;51.954;7.998;2022-12-18T15:10:58;-0.80;99.90
15111;DHT22;7656;51.954;7.998;2022-12-18T15:20:02;-0.90;99.90
15111;DHT22;7656;51.954;7.998;2022-12-18T15:24:31;-0.70;99.90
15111;DHT22;7656;51.954;7.998;2022-12-18T15:28:55;-0.90;99.90
15111;DHT22;7656;51.954;7.998;2022-12-18T15:33:23;-1.10;99.90
15111;DHT22;7656;51.954;7.998;2022-12-18T15:37:47;-1.00;99.90
15111;DHT22;7656;51.954;7.998;2022-12-18T15:42:09;-0.90;99.90
15111;DHT22;7656;51.954;7.998;2022-12-18T15:46:49;-0.80;99.90
15111;DHT22;7656;51.954;7.998;2022-12-18T15:55:41;-0.50;99.90
15111;DHT22;7656;51.954;7.998;2022-12-18T16:00:21;-0.60;99.90
15111;DHT22;7656;51.954;7.998;2022-12-18T16:04:42;-0.80;99.90
15111;DHT22;7656;51.954;7.998;2022-12-18T16:09:04;-1.00;99.90
15111;DHT22;7656;51.954;7.998;2022-12-18T16:13:25;-0.90;99.90
15111;DHT22;7656;51.954;7.998;2022-12-18T16:17:47;-0.90;99.90
15111;DHT22;7656;51.954;7.998;2022-12-18T16:22:24;-1.00;99.90
15111;DHT22;7656;51.954;7.998;2022-12-18T16:26:48;-1.10;99.90
15111;DHT22;7656;51.954;7.998;2022-12-18T16:31:09;-1.00;99.90
15111;DHT22;7656;51.954;7.998;2022-12-18T16:35:30;-1.00;99.90
15111;DHT22;7656;51.954;7.998;2022-12-18T16:39:53;-0.90;99.90
15111;DHT22;7656;51.954;7.998;2022-12-18T16:44:14;-0.90;99.90
15111;DHT22;7656;51.954;7.998;2022-12-18T16:48:35;-0.90;99.90
15111;DHT22;7656;51.954;7.998;2022-12-18T16:52:56;-1.00;99.90
15111;DHT22;7656;51.954;7.998;2022-12-18T16:57:19;-0.90;99.90
15111;DHT22;7656;51.954;7.998;2022-12-18T17:01:41;-0.90;99.90
15111;DHT22;7656;51.954;7.998;2022-12-18T17:06:05;-0.90;99.90
15111;DHT22;7656;51.954;7.998;2022-12-18T17:10:27;-0.90;99.90
15111;DHT22;7656;51.954;7.998;2022-12-18T17:14:48;-0.80;99.90
15111;DHT22;7656;51.954;7.998;2022-12-18T17:19:10;-0.60;99.90
15111;DHT22;7656;51.954;7.998;2022-12-18T17:23:31;-0.50;99.90
15111;DHT22;7656;51.954;7.998;2022-12-18T17:27:52;-0.60;99.90
15111;DHT22;7656;51.954;7.998;2022-12-18T17:32:14;-0.50;99.90
15111;DHT22;7656;51.954;7.998;2022-12-18T17:36:36;-0.60;99.90
15111;DHT22;7656;51.954;7.998;2022-12-18T17:41:02;-0.40;99.90
15111;DHT22;7656;51.954;7.998;2022-12-18T17:45:24;-0.50;99.90
15111;DHT22;7656;51.954;7.998;2022-12-18T17:49:45;-0.50;99.90
15111;DHT22;7656;51.954;7.998;2022-12-18T17:54:07;-0.50;99.90
15111;DHT22;7656;51.954;7.998;2022-12-18T17:58:28;-0.50;99.90
15111;DHT22;7656;51.954;7.998;2022-12-18T18:02:50;-0.50;99.90
15111;DHT22;7656;51.954;7.998;2022-12-18T18:07:11;-0.60;99.90
15111;DHT22;7656;51.954;7.998;2022-12-18T18:11:32;-0.50;99.90
15111;DHT22;7656;51.954;7.998;2022-12-18T18:16:12;-0.60;99.90
15111;DHT22;7656;51.954;7.998;2022-12-18T18:20:37;-0.60;99.90
15111;DHT22;7656;51.954;7.998;2022-12-18T18:24:59;-0.70;99.90
15111;DHT22;7656;51.954;7.998;2022-12-18T18:29:24;-0.70;99.90
15111;DHT22;7656;51.954;7.998;2022-12-18T18:33:46;-0.70;99.90
15111;DHT22;7656;51.954;7.998;2022-12-18T18:38:07;-0.70;99.90
15111;DHT22;7656;51.954;7.998;2022-12-18T18:42:29;-0.60;99.90
15111;DHT22;7656;51.954;7.998;2022-12-18T18:46:53;-0.70;99.90
15111;DHT22;7656;51.954;7.998;2022-12-18T18:51:16;-0.80;99.90
15111;DHT22;7656;51.954;7.998;2022-12-18T18:55:38;-0.80;99.90
15111;DHT22;7656;51.954;7.998;2022-12-18T19:00:00;-0.80;99.90
15111;DHT22;7656;51.954;7.998;2022-12-18T19:04:21;-0.80;99.90
15111;DHT22;7656;51.954;7.998;2022-12-18T19:08:42;-0.80;99.90
15111;DHT22;7656;51.954;7.998;2022-12-18T19:13:04;-0.80;99.90
15111;DHT22;7656;51.954;7.998;2022-12-18T19:17:44;-0.90;99.90
15111;DHT22;7656;51.954;7.998;2022-12-18T19:22:05;-0.90;99.90
15111;DHT22;7656;51.954;7.998;2022-12-18T19:26:27;-0.90;99.90
15111;DHT22;7656;51.954;7.998;2022-12-18T19:30:49;-0.90;99.90
15111;DHT22;7656;51.954;7.998;2022-12-18T19:35:12;-1.00;99.90
15111;DHT22;7656;51.954;7.998;2022-12-18T19:39:33;-1.00;99.90
15111;DHT22;7656;51.954;7.998;2022-12-18T19:43:54;-1.00;99.90
15111;DHT22;7656;51.954;7.998;2022-12-18T19:48:15;-1.10;99.90
15111;DHT22;7656;51.954;7.998;2022-12-18T19:52:36;-1.10;99.90
15111;DHT22;7656;51.954;7.998;2022-12-18T19:56:57;-1.10;99.90
15111;DHT22;7656;51.954;7.998;2022-12-18T20:01:20;-1.10;99.90
15111;DHT22;7656;51.954;7.998;2022-12-18T20:05:42;-1.10;99.90
15111;DHT22;7656;51.954;7.998;2022-12-18T20:10:05;-1.20;99.90
15111;DHT22;7656;51.954;7.998;2022-12-18T20:14:28;-1.20;99.90
15111;DHT22;7656;51.954;7.998;2022-12-18T20:18:49;-1.10;99.90
15111;DHT22;7656;51.954;7.998;2022-12-18T20:23:10;-1.10;99.90
15111;DHT22;7656;51.954;7.998;2022-12-18T20:27:31;-1.10;99.90
15111;DHT22;7656;51.954;7.998;2022-12-18T20:31:52;-1.20;99.90
15111;DHT22;7656;51.954;7.998;2022-12-18T20:36:16;-1.20;99.90
15111;DHT22;7656;51.954;7.998;2022-12-18T20:40:42;-1.20;99.90
15111;DHT22;7656;51.954;7.998;2022-12-18T20:45:03;-1.20;99.90
15111;DHT22;7656;51.954;7.998;2022-12-18T20:49:25;-1.20;99.90
15111;DHT22;7656;51.954;7.998;2022-12-18T20:53:47;-1.20;99.90
15111;DHT22;7656;51.954;7.998;2022-12-18T20:58:08;-1.20;99.90
15111;DHT22;7656;51.954;7.998;2022-12-18T21:02:29;-1.20;99.90
15111;DHT22;7656;51.954;7.998;2022-12-18T21:06:51;-1.20;99.90
15111;DHT22;7656;51.954;7.998;2022-12-18T21:15:57;-1.10;99.90
15111;DHT22;7656;51.954;7.998;2022-12-18T21:20:18;-1.10;99.90
15111;DHT22;7656;51.954;7.998;2022-12-18T21:24:39;-1.00;99.90
15111;DHT22;7656;51.954;7.998;2022-12-18T21:29:03;-1.10;99.90
15111;DHT22;7656;51.954;7.998;2022-12-18T21:33:26;-1.00;99.90
15111;DHT22;7656;51.954;7.998;2022-12-18T21:37:47;-1.00;99.90
15111;DHT22;7656;51.954;7.998;2022-12-18T21:42:10;-1.00;99.90
15111;DHT22;7656;51.954;7.998;2022-12-18T21:46:50;-1.00;99.90
15111;DHT22;7656;51.954;7.998;2022-12-18T21:51:11;-1.10;99.90
15111;DHT22;7656;51.954;7.998;2022-12-18T21:55:32;-1.00;99.90
15111;DHT22;7656;51.954;7.998;2022-12-18T21:59:53;-1.00;99.90
15111;DHT22;7656;51.954;7.998;2022-12-18T22:04:15;-1.00;99.90
15111;DHT22;7656;51.954;7.998;2022-12-18T22:08:37;-0.90;99.90
15111;DHT22;7656;51.954;7.998;2022-12-18T22:12:58;-0.90;99.90
15111;DHT22;7656;51.954;7.998;2022-12-18T22:17:19;-0.90;99.90
15111;DHT22;7656;51.954;7.998;2022-12-18T22:21:46;-0.80;99.90
15111;DHT22;7656;51.954;7.998;2022-12-18T22:26:08;-0.80;99.90
15111;DHT22;7656;51.954;7.998;2022-12-18T22:30:30;-0.80;99.90
15111;DHT22;7656;51.954;7.998;2022-12-18T22:34:51;-0.80;99.90
15111;DHT22;7656;51.954;7.998;2022-12-18T22:39:18;-0.80;99.90
15111;DHT22;7656;51.954;7.998;2022-12-18T22:43:43;-0.80;99.90
15111;DHT22;7656;51.954;7.998;2022-12-18T22:48:04;-0.80;99.90
15111;DHT22;7656;51.954;7.998;2022-12-18T22:52:25;-0.70;99.90
15111;DHT22;7656;51.954;7.998;2022-12-18T22:56:47;-0.70;99.90
15111;DHT22;7656;51.954;7.998;2022-12-18T23:01:17;-0.70;99.90
15111;DHT22;7656;51.954;7.998;2022-12-18T23:05:43;-0.70;99.90
15111;DHT22;7656;51.954;7.998;2022-12-18T23:10:05;-0.80;99.90
15111;DHT22;7656;51.954;7.998;2022-12-18T23:14:27;-0.70;99.90
15111;DHT22;7656;51.954;7.998;2022-12-18T23:18:53;-0.70;99.90
15111;DHT22;7656;51.954;7.998;2022-12-18T23:23:15;-0.70;99.90
15111;DHT22;7656;51.954;7.998;2022-12-18T23:27:36;-0.70;99.90
15111;DHT22;7656;51.954;7.998;2022-12-18T23:31:57;-0.70;99.90
15111;DHT22;7656;51.954;7.998;2022-12-18T23:36:19;-0.70;99.90
15111;DHT22;7656;51.954;7.998;2022-12-18T23:40:40;-0.70;99.90
15111;DHT22;7656;51.954;7.998;2022-12-18T23:45:01;-0.60;99.90
15111;DHT22;7656;51.954;7.998;2022-12-18T23:49:22;-0.60;99.90
15111;DHT22;7656;51.954;7.998;2022-12-18T23:53:44;-0.70;99.90
15111;DHT22;7656;51.954;7.998;2022-12-18T23:58:06;-0.60;99.90
